Time;durP1;ratioP1;P1;durP2;ratioP2;P2;SDS_P1;SDS_P2;PMS_P1;PMS_P2;Temp;Humidity;BMP_temperature;BMP_pressure;BME280_temperature;BME280_humidity;BME280_pressure;Samples;Min_cycle;Max_cycle;Signal;HPM_P1;HPM_P2
2023/12/22 00:00:22;;;;;;;0.95;0.70;;;;;;;8.34;59.64;97420.34;5284687;27;20060;-92
2023/12/22 00:02:47;;;;;;;0.73;0.73;;;;;;;8.56;59.65;97418.09;5285334;27;20128;-94
2023/12/22 00:05:13;;;;;;;1.75;1.50;;;;;;;8.53;59.65;97407.09;5285007;27;20416;-91
2023/12/22 00:07:41;;;;;;;0.30;0.30;;;;;;;8.51;59.66;97403.72;5284660;27;20153;-92
2023/12/22 00:10:06;;;;;;;1.17;0.75;;;;;;;8.50;59.65;97418.47;5284929;27;20054;-93
2023/12/22 00:12:34;;;;;;;1.10;1.10;;;;;;;8.60;59.65;97417.00;5285060;27;20072;-93
2023/12/22 00:15:00;;;;;;;0.80;0.80;;;;;;;8.68;59.66;97426.88;5284382;27;20065;-94
2023/12/22 00:17:27;;;;;;;0.60;0.60;;;;;;;8.79;59.66;97440.03;5285116;27;20082;-93
2023/12/22 00:19:55;;;;;;;1.60;1.15;;;;;;;8.84;59.67;97437.16;5284445;27;20053;-93
2023/12/22 00:22:25;;;;;;;1.65;1.45;;;;;;;8.77;59.67;97441.91;5302893;27;20057;-93
2023/12/22 00:24:51;;;;;;;1.27;1.17;;;;;;;8.75;59.66;97435.13;5284830;27;20064;-93
2023/12/22 00:27:19;;;;;;;1.10;1.10;;;;;;;8.72;59.66;97448.28;5284858;27;20091;-93
2023/12/22 00:29:44;;;;;;;0.85;0.85;;;;;;;8.72;59.66;97456.06;5284305;27;20056;-93
2023/12/22 00:32:09;;;;;;;0.37;0.37;;;;;;;8.67;59.66;97471.91;5284978;27;20078;-90
2023/12/22 00:34:35;;;;;;;0.05;0.05;;;;;;;8.44;59.64;97482.81;5284424;27;20064;-92
2023/12/22 00:37:01;;;;;;;0.85;0.32;;;;;;;8.42;59.64;97480.31;5284546;27;20072;-93
2023/12/22 00:39:29;;;;;;;0.50;0.40;;;;;;;8.02;59.62;97472.25;5284057;27;20081;-93
2023/12/22 00:41:54;;;;;;;0.45;0.45;;;;;;;8.00;59.63;97475.84;5284311;27;20048;-92
2023/12/22 00:44:19;;;;;;;0.73;0.73;;;;;;;8.06;59.62;97472.09;5284361;27;20075;-90
2023/12/22 00:46:45;;;;;;;0.00;0.00;;;;;;;8.22;59.63;97454.72;5284901;27;20345;-91
2023/12/22 00:49:10;;;;;;;1.02;0.98;;;;;;;8.18;59.63;97476.53;5283623;27;20069;-91
2023/12/22 00:51:36;;;;;;;0.00;0.00;;;;;;;8.26;59.64;97463.97;5286199;27;20048;-91
2023/12/22 00:54:01;;;;;;;0.35;0.35;;;;;;;8.18;59.63;97489.50;5283699;27;20076;-92
2023/12/22 00:56:26;;;;;;;0.17;0.17;;;;;;;8.12;59.62;97489.88;5284293;27;20075;-91
2023/12/22 00:58:53;;;;;;;0.00;0.00;;;;;;;8.24;59.64;97505.53;5284144;27;20702;-91
2023/12/22 01:01:18;;;;;;;0.45;0.45;;;;;;;8.20;59.63;97514.41;5283810;27;20424;-92
2023/12/22 01:03:44;;;;;;;0.17;0.10;;;;;;;8.16;59.63;97523.28;5284108;27;20088;-92
2023/12/22 01:06:09;;;;;;;0.00;0.00;;;;;;;8.18;59.63;97474.78;5284113;27;20060;-91
2023/12/22 01:08:37;;;;;;;0.03;0.03;;;;;;;8.26;59.64;97453.59;5283475;27;20069;-93
2023/12/22 01:11:05;;;;;;;0.00;0.00;;;;;;;8.51;59.66;97437.44;5284365;27;20072;-92
2023/12/22 01:13:30;;;;;;;0.00;0.00;;;;;;;8.65;59.66;97428.84;5284455;27;20539;-92
2023/12/22 01:15:56;;;;;;;0.05;0.05;;;;;;;8.75;59.67;97438.53;5302257;27;20075;-92
2023/12/22 01:18:21;;;;;;;0.00;0.00;;;;;;;8.61;59.65;97467.94;5284186;27;20105;-92
2023/12/22 01:20:47;;;;;;;0.32;0.30;;;;;;;8.83;59.67;97469.22;5284476;27;20077;-92
2023/12/22 01:23:12;;;;;;;0.10;0.10;;;;;;;8.85;59.67;97475.12;5283889;27;20152;-92
2023/12/22 01:25:37;;;;;;;0.10;0.10;;;;;;;8.84;59.67;97469.13;5284028;27;20092;-92
2023/12/22 01:28:03;;;;;;;4.30;1.45;;;;;;;8.76;59.67;97471.34;5283577;27;20354;-91
2023/12/22 01:30:28;;;;;;;0.00;0.00;;;;;;;8.73;59.66;97462.91;5283717;27;20106;-92
2023/12/22 01:32:54;;;;;;;0.00;0.00;;;;;;;8.66;59.66;97461.63;5283918;27;20060;-92
2023/12/22 01:35:19;;;;;;;0.00;0.00;;;;;;;8.70;59.66;97463.94;5284042;27;20111;-92
2023/12/22 01:37:47;;;;;;;0.00;0.00;;;;;;;8.63;59.66;97470.41;5301924;27;20139;-91
2023/12/22 01:40:12;;;;;;;0.00;0.00;;;;;;;8.63;59.66;97465.22;5283925;27;20061;-92
2023/12/22 01:42:39;;;;;;;0.22;0.22;;;;;;;8.53;59.66;97471.91;5301869;27;20060;-91
2023/12/22 01:45:06;;;;;;;0.13;0.13;;;;;;;8.41;59.65;97475.22;5302003;27;20064;-91
2023/12/22 01:47:31;;;;;;;0.00;0.00;;;;;;;8.34;59.64;97481.72;5302451;27;20104;-92
2023/12/22 01:49:56;;;;;;;0.00;0.00;;;;;;;8.20;59.63;97472.09;5283821;27;20475;-91
2023/12/22 01:52:22;;;;;;;0.10;0.10;;;;;;;8.11;59.63;97501.16;5283199;27;20497;-90
2023/12/22 01:54:47;;;;;;;0.30;0.30;;;;;;;8.04;59.62;97505.84;5302653;27;20476;-93
2023/12/22 01:57:13;;;;;;;0.00;0.00;;;;;;;8.09;59.63;97498.66;5284317;27;20080;-92
2023/12/22 01:59:39;;;;;;;0.20;0.20;;;;;;;8.07;59.62;97489.31;5284246;27;20067;-92
2023/12/22 02:02:04;;;;;;;0.00;0.00;;;;;;;7.98;59.62;97472.50;5284549;27;20093;-93
2023/12/22 02:04:30;;;;;;;1.08;0.30;;;;;;;8.02;59.62;97459.28;5284504;27;20110;-92
2023/12/22 02:06:56;;;;;;;0.00;0.00;;;;;;;7.93;59.62;97433.94;5284359;27;20061;-93
2023/12/22 02:09:24;;;;;;;0.80;0.80;;;;;;;7.94;59.62;97424.41;5284939;27;20425;-92
2023/12/22 02:11:52;;;;;;;0.00;0.00;;;;;;;8.20;59.63;97421.09;5285085;27;20064;-92
2023/12/22 02:14:17;;;;;;;0.00;0.00;;;;;;;8.14;59.64;97405.94;5285401;27;20060;-93
2023/12/22 02:23:42;;;;;;;0.00;0.00;;;;;;;8.36;59.64;97410.69;5105759;28;20068;-94
2023/12/22 02:26:40;;;;;;;0.65;0.40;;;;;;;8.47;59.65;97408.28;5033980;28;20213;-94
2023/12/22 02:29:09;;;;;;;0.00;0.00;;;;;;;8.47;59.65;97413.47;5195690;27;20086;-94
2023/12/22 02:31:49;;;;;;;0.00;0.00;;;;;;;8.40;59.65;97382.81;5228415;27;20464;-94
2023/12/22 02:38:46;;;;;;;;;;;;;;;;;;;;;
2023/12/22 02:41:22;;;;;;;;;;;;;;;;;;;;;
2023/12/22 02:44:15;;;;;;;;;;;;;;;;;;;;;
2023/12/22 02:53:58;;;;;;;0.00;0.00;;;;;;;8.40;59.64;97445.88;5278517;27;20061;-96
2023/12/22 03:00:35;;;;;;;0.00;0.00;;;;;;;8.30;59.64;97419.66;5248258;27;20136;-94
2023/12/22 03:12:48;;;;;;;0.00;0.00;;;;;;;8.22;59.64;97429.62;5298939;26;20087;-93
2023/12/22 03:15:26;;;;;;;0.00;0.00;;;;;;;8.24;59.63;97432.94;5292337;26;20077;-92
2023/12/22 03:17:59;;;;;;;0.00;0.00;;;;;;;8.20;59.63;97449.63;5291518;26;20056;-92
2023/12/22 03:20:31;;;;;;;0.00;0.00;;;;;;;8.10;59.62;97456.28;5289642;26;20095;-93
2023/12/22 03:22:57;;;;;;;0.00;0.00;;;;;;;7.93;59.62;97433.09;5308708;26;20078;-92
2023/12/22 03:25:24;;;;;;;0.00;0.00;;;;;;;8.06;59.62;97465.16;5289384;26;20104;-93
2023/12/22 03:27:50;;;;;;;0.00;0.00;;;;;;;8.11;59.62;97481.25;5289553;26;20056;-94
2023/12/22 03:30:15;;;;;;;0.00;0.00;;;;;;;7.93;59.62;97495.28;5289269;26;20499;-93
2023/12/22 03:32:40;;;;;;;0.00;0.00;;;;;;;7.85;59.61;97489.69;5288836;26;20445;-92
2023/12/22 03:35:06;;;;;;;0.00;0.00;;;;;;;7.88;59.62;97495.53;5289206;26;20072;-91
2023/12/22 03:37:31;;;;;;;0.00;0.00;;;;;;;7.77;59.60;97497.06;5288968;26;20095;-92
2023/12/22 03:40:32;;;;;;;;;;;;;;;;;;;;;
2023/12/22 03:42:58;;;;;;;0.00;0.00;;;;;;;7.38;59.58;97482.84;5327193;26;36805;-92
2023/12/22 03:45:23;;;;;;;0.00;0.00;;;;;;;7.32;59.58;97473.62;5326959;26;20065;-92
2023/12/22 03:47:51;;;;;;;0.47;0.47;;;;;;;7.22;59.58;97479.41;5289311;26;20072;-93
2023/12/22 03:50:16;;;;;;;0.15;0.08;;;;;;;7.26;59.58;97463.63;5288955;26;20052;-93
2023/12/22 03:52:44;;;;;;;0.00;0.00;;;;;;;7.44;59.59;97476.50;5307327;26;20119;-93
2023/12/22 03:55:10;;;;;;;0.00;0.00;;;;;;;7.29;59.58;97489.34;5306996;26;20083;-91
2023/12/22 03:57:36;;;;;;;0.00;0.00;;;;;;;7.36;59.58;97495.03;5308239;26;20060;-91
2023/12/22 04:00:01;;;;;;;0.00;0.00;;;;;;;7.36;59.58;97505.38;5306473;26;20091;-90
2023/12/22 04:02:26;;;;;;;0.00;0.00;;;;;;;7.41;59.59;97507.72;5288090;26;20108;-91
2023/12/22 04:04:52;;;;;;;0.00;0.00;;;;;;;7.38;59.59;97495.78;5306415;26;20145;-92
2023/12/22 04:07:17;;;;;;;0.00;0.00;;;;;;;7.32;59.58;97503.88;5288908;26;20130;-91
2023/12/22 04:09:43;;;;;;;0.00;0.00;;;;;;;7.41;59.59;97503.38;5307472;26;20111;-92
2023/12/22 04:12:08;;;;;;;0.00;0.00;;;;;;;7.40;59.59;97527.59;5306781;26;22937;-91
2023/12/22 04:14:34;;;;;;;0.10;0.10;;;;;;;7.39;59.58;97520.75;5307397;26;20072;-92
2023/12/22 04:16:59;;;;;;;0.00;0.00;;;;;;;7.41;59.59;97505.12;5307254;26;20076;-91
2023/12/22 04:19:25;;;;;;;0.93;0.50;;;;;;;7.26;59.58;97524.91;5306197;26;20146;-91
2023/12/22 04:21:50;;;;;;;0.00;0.00;;;;;;;7.33;59.59;97524.50;5306685;26;20084;-91
2023/12/22 04:24:16;;;;;;;0.00;0.00;;;;;;;7.54;59.59;97538.00;5287672;26;24428;-93
2023/12/22 04:26:41;;;;;;;0.00;0.00;;;;;;;7.49;59.60;97547.78;5288633;26;20103;-92
2023/12/22 04:29:07;;;;;;;0.00;0.00;;;;;;;7.61;59.59;97549.72;5288656;26;20143;-91
2023/12/22 04:31:32;;;;;;;0.00;0.00;;;;;;;7.66;59.60;97544.28;5306625;26;20089;-91
2023/12/22 04:33:57;;;;;;;0.00;0.00;;;;;;;7.60;59.59;97542.03;5287999;26;20063;-92
2023/12/22 04:36:23;;;;;;;0.00;0.00;;;;;;;7.60;59.60;97544.63;5306683;26;20143;-90
2023/12/22 04:38:48;;;;;;;0.00;0.00;;;;;;;7.57;59.60;97549.94;5305776;26;20080;-91
2023/12/22 04:41:14;;;;;;;0.00;0.00;;;;;;;7.36;59.59;97550.22;5305787;26;20370;-90
2023/12/22 04:43:39;;;;;;;0.00;0.00;;;;;;;7.30;59.58;97544.53;5286792;26;20115;-89
2023/12/22 04:46:04;;;;;;;0.00;0.00;;;;;;;7.34;59.58;97546.87;5322772;26;23070;-91
2023/12/22 04:48:35;;;;;;;0.00;0.00;;;;;;;7.42;59.59;97549.03;5306429;26;20099;-92
2023/12/22 04:51:01;;;;;;;0.00;0.00;;;;;;;7.54;59.59;97548.34;5289128;26;20076;-92
2023/12/22 04:53:26;;;;;;;0.00;0.00;;;;;;;7.41;59.59;97554.31;5306426;26;20771;-92
2023/12/22 04:55:54;;;;;;;0.00;0.00;;;;;;;7.33;59.58;97558.16;5306246;26;20342;-92
2023/12/22 04:58:19;;;;;;;0.00;0.00;;;;;;;7.26;59.58;97549.03;5291167;26;20344;-91
2023/12/22 05:00:45;;;;;;;0.15;0.15;;;;;;;7.33;59.58;97560.75;5306281;26;20104;-91
2023/12/22 05:03:10;;;;;;;0.17;0.17;;;;;;;7.11;59.58;97557.62;5306094;26;20110;-89
2023/12/22 05:05:36;;;;;;;0.00;0.00;;;;;;;7.20;59.57;97570.06;5305374;26;20056;-91
2023/12/22 05:08:02;;;;;;;0.22;0.22;;;;;;;7.21;59.57;97568.31;5343733;26;27182;-90
2023/12/22 05:10:27;;;;;;;1.00;0.73;;;;;;;7.13;59.57;97578.25;5305720;26;20094;-90
2023/12/22 05:12:54;;;;;;;0.00;0.00;;;;;;;7.06;59.57;97577.72;5306087;26;20347;-91
2023/12/22 05:15:19;;;;;;;0.00;0.00;;;;;;;6.90;59.56;97585.44;5305976;26;20114;-90
2023/12/22 05:17:44;;;;;;;0.00;0.00;;;;;;;7.13;59.57;97598.94;5286821;26;21516;-92
2023/12/22 05:20:10;;;;;;;0.00;0.00;;;;;;;7.12;59.58;97605.03;5287813;26;20667;-92
2023/12/22 05:22:39;;;;;;;0.00;0.00;;;;;;;7.13;59.58;97622.22;5306318;26;20498;-91
2023/12/22 05:25:05;;;;;;;0.00;0.00;;;;;;;6.94;59.55;97617.16;5288458;26;20108;-91
2023/12/22 05:27:30;;;;;;;0.00;0.00;;;;;;;7.00;59.56;97612.50;5285617;26;20341;-90
2023/12/22 05:30:01;;;;;;;0.00;0.00;;;;;;;7.04;59.57;97619.19;5305626;26;20118;-90
2023/12/22 05:32:26;;;;;;;0.00;0.00;;;;;;;6.93;59.56;97611.16;5323365;26;20078;-89
2023/12/22 05:34:52;;;;;;;0.00;0.00;;;;;;;6.89;59.56;97624.31;5286956;26;20071;-90
2023/12/22 05:37:17;;;;;;;0.00;0.00;;;;;;;6.61;59.55;97632.59;5305449;26;20452;-92
2023/12/22 05:39:44;;;;;;;0.00;0.00;;;;;;;6.77;59.55;97630.94;5287606;26;20130;-91
2023/12/22 05:42:09;;;;;;;0.00;0.00;;;;;;;6.77;59.55;97626.59;5305456;26;20115;-89
2023/12/22 05:44:35;;;;;;;0.00;0.00;;;;;;;6.62;59.54;97632.53;5305623;26;20139;-91
2023/12/22 05:47:00;;;;;;;0.00;0.00;;;;;;;6.61;59.55;97635.19;5305911;26;20068;-91
2023/12/22 05:49:39;;;;;;;0.20;0.08;;;;;;;6.41;59.53;97638.78;5309028;26;20136;-89
2023/12/22 05:52:04;;;;;;;0.00;0.00;;;;;;;6.53;59.54;97637.31;5322829;26;20064;-89
2023/12/22 05:54:30;;;;;;;0.00;0.00;;;;;;;6.34;59.52;97643.38;5323113;26;20075;-90
2023/12/22 05:56:58;;;;;;;0.10;0.10;;;;;;;6.30;59.53;97647.03;5305604;26;20064;-90
2023/12/22 05:59:23;;;;;;;48.87;1.45;;;;;;;6.28;59.53;97654.03;5324088;26;20103;-91
2023/12/22 06:01:53;;;;;;;0.00;0.00;;;;;;;6.07;59.52;97668.78;5306953;26;20106;-90
2023/12/22 06:04:19;;;;;;;0.00;0.00;;;;;;;6.14;59.52;97670.16;5288434;26;20111;-90
2023/12/22 06:06:44;;;;;;;0.00;0.00;;;;;;;6.23;59.53;97650.00;5305801;26;28374;-89
2023/12/22 06:09:12;;;;;;;0.00;0.00;;;;;;;6.29;59.53;97658.28;5325011;26;20109;-90
2023/12/22 06:11:39;;;;;;;0.00;0.00;;;;;;;6.23;59.53;97662.91;5306553;26;20057;-90
2023/12/22 06:14:05;;;;;;;0.00;0.00;;;;;;;6.38;59.53;97663.00;5289179;26;20027;-91
2023/12/22 06:16:31;;;;;;;0.95;0.85;;;;;;;6.48;59.54;97673.75;5306092;26;20053;-90
2023/12/22 06:18:56;;;;;;;0.00;0.00;;;;;;;6.44;59.53;97685.97;5306332;26;20060;-89
2023/12/22 06:21:22;;;;;;;0.00;0.00;;;;;;;6.46;59.53;97699.66;5305426;26;20063;-91
2023/12/22 06:23:47;;;;;;;0.43;0.43;;;;;;;6.37;59.53;97702.66;5305592;26;20094;-92
2023/12/22 06:26:12;;;;;;;0.40;0.40;;;;;;;6.32;59.53;97702.06;5324212;26;20456;-90
2023/12/22 06:28:39;;;;;;;0.00;0.00;;;;;;;6.15;59.52;97723.53;5325073;26;20085;-90
2023/12/22 06:31:08;;;;;;;0.00;0.00;;;;;;;6.17;59.52;97728.63;5306224;26;20150;-91
2023/12/22 06:33:34;;;;;;;0.00;0.00;;;;;;;6.16;59.52;97734.72;5288341;26;20119;-90
2023/12/22 06:35:59;;;;;;;0.17;0.17;;;;;;;6.32;59.52;97733.06;5305609;26;20093;-91
2023/12/22 06:38:25;;;;;;;0.00;0.00;;;;;;;6.35;59.54;97732.91;5305281;26;21750;-89
2023/12/22 06:40:50;;;;;;;0.20;0.20;;;;;;;6.23;59.53;97724.91;5305732;26;20469;-90
2023/12/22 06:43:15;;;;;;;0.20;0.20;;;;;;;6.24;59.52;97719.69;5324845;26;20374;-90
2023/12/22 06:45:41;;;;;;;0.00;0.00;;;;;;;6.44;59.54;97721.31;5305005;26;30064;-90
2023/12/22 06:48:07;;;;;;;0.00;0.00;;;;;;;6.40;59.53;97719.81;5323422;26;20129;-90
2023/12/22 06:50:32;;;;;;;0.00;0.00;;;;;;;6.38;59.53;97706.94;5305839;26;20052;-91
2023/12/22 06:52:57;;;;;;;0.10;0.10;;;;;;;6.25;59.52;97717.94;5306332;26;20091;-90
2023/12/22 06:55:23;;;;;;;0.00;0.00;;;;;;;6.29;59.53;97722.03;5287670;26;20114;-90
2023/12/22 06:57:49;;;;;;;0.00;0.00;;;;;;;6.20;59.53;97723.31;5287555;26;20106;-91
2023/12/22 07:00:14;;;;;;;1.37;0.62;;;;;;;6.27;59.52;97729.03;5287358;26;20080;-90
2023/12/22 07:02:40;;;;;;;0.20;0.20;;;;;;;6.22;59.53;97724.09;5290526;26;20066;-91
2023/12/22 07:05:11;;;;;;;0.00;0.00;;;;;;;6.29;59.53;97722.87;5305218;26;20346;-90
2023/12/22 07:07:37;;;;;;;0.00;0.00;;;;;;;6.29;59.53;97734.97;5344252;26;20082;-90
2023/12/22 07:10:03;;;;;;;0.00;0.00;;;;;;;6.29;59.53;97733.22;5304974;26;20076;-90
2023/12/22 07:12:28;;;;;;;0.00;0.00;;;;;;;6.34;59.53;97740.75;5306147;26;20745;-90
2023/12/22 07:14:54;;;;;;;0.00;0.00;;;;;;;6.37;59.53;97741.44;5287806;26;20123;-89
2023/12/22 07:17:19;;;;;;;0.00;0.00;;;;;;;6.49;59.54;97739.19;5306001;26;20074;-91
2023/12/22 07:19:45;;;;;;;0.00;0.00;;;;;;;6.56;59.53;97743.97;5287434;26;20057;-91
2023/12/22 07:22:10;;;;;;;0.00;0.00;;;;;;;6.69;59.55;97744.25;5287877;26;20060;-90
2023/12/22 07:24:36;;;;;;;0.00;0.00;;;;;;;6.68;59.55;97740.00;5287381;26;20048;-90
2023/12/22 07:27:01;;;;;;;0.00;0.00;;;;;;;6.80;59.56;97736.78;5305247;26;20447;-90
2023/12/22 07:29:27;;;;;;;0.00;0.00;;;;;;;6.72;59.54;97728.59;5287521;26;20072;-90
2023/12/22 07:31:52;;;;;;;0.00;0.00;;;;;;;6.99;59.56;97727.22;5287310;26;20056;-90
2023/12/22 07:34:18;;;;;;;0.00;0.00;;;;;;;6.94;59.55;97730.94;5286595;26;25248;-90
2023/12/22 07:36:43;;;;;;;3.92;1.65;;;;;;;7.11;59.57;97722.34;5305654;26;20072;-90
2023/12/22 07:39:10;;;;;;;0.10;0.10;;;;;;;7.06;59.56;97720.81;5324197;26;20044;-90
2023/12/22 07:41:36;;;;;;;1.45;1.35;;;;;;;7.08;59.56;97725.91;5288200;26;20453;-90
2023/12/22 07:44:01;;;;;;;0.00;0.00;;;;;;;6.92;59.56;97725.84;5306228;26;20133;-89
2023/12/22 07:46:28;;;;;;;0.00;0.00;;;;;;;7.12;59.58;97742.16;5288197;26;20064;-91
2023/12/22 07:48:53;;;;;;;0.15;0.15;;;;;;;7.13;59.57;97731.72;5288138;26;20106;-90
2023/12/22 07:51:19;;;;;;;0.37;0.37;;;;;;;7.24;59.57;97737.16;5287852;26;20049;-90
2023/12/22 07:53:44;;;;;;;0.00;0.00;;;;;;;6.99;59.57;97737.56;5288141;26;20142;-92
2023/12/22 07:56:10;;;;;;;0.00;0.00;;;;;;;7.04;59.57;97732.16;5306240;26;20126;-91
2023/12/22 07:58:36;;;;;;;0.00;0.00;;;;;;;7.11;59.58;97738.72;5287494;26;20078;-88
2023/12/22 08:01:02;;;;;;;0.00;0.00;;;;;;;7.11;59.58;97750.81;5306149;26;20101;-90
2023/12/22 08:03:28;;;;;;;0.00;0.00;;;;;;;7.16;59.57;97754.00;5288983;26;20016;-89
2023/12/22 08:05:53;;;;;;;0.00;0.00;;;;;;;7.24;59.58;97749.28;5289794;26;20115;-89
2023/12/22 08:08:19;;;;;;;0.00;0.00;;;;;;;7.34;59.59;97753.94;5287787;26;20125;-89
2023/12/22 08:10:44;;;;;;;0.00;0.00;;;;;;;7.23;59.58;97755.38;5287557;26;20368;-91
2023/12/22 08:13:10;;;;;;;0.00;0.00;;;;;;;7.33;59.59;97744.50;5286829;26;20373;-88
2023/12/22 08:15:37;;;;;;;0.47;0.47;;;;;;;7.54;59.59;97752.87;5304836;26;24453;-88
2023/12/22 08:18:03;;;;;;;0.00;0.00;;;;;;;7.65;59.60;97744.56;5306032;26;20417;-89
2023/12/22 08:20:29;;;;;;;0.00;0.00;;;;;;;7.63;59.61;97725.69;5286946;26;20090;-88
2023/12/22 08:22:54;;;;;;;0.00;0.00;;;;;;;7.62;59.59;97744.75;5305208;26;20350;-90
2023/12/22 08:25:20;;;;;;;0.00;0.00;;;;;;;7.66;59.60;97744.50;5287207;26;20092;-90
2023/12/22 08:27:45;;;;;;;0.00;0.00;;;;;;;7.74;59.60;97740.66;5288379;26;20369;-91
2023/12/22 08:30:11;;;;;;;0.10;0.10;;;;;;;7.80;59.61;97741.16;5287243;26;20052;-90
2023/12/22 08:32:36;;;;;;;0.10;0.10;;;;;;;7.79;59.61;97736.06;5287397;26;20085;-90
2023/12/22 08:35:03;;;;;;;0.00;0.00;;;;;;;7.67;59.60;97733.22;5287655;26;20072;-90
2023/12/22 08:37:28;;;;;;;0.00;0.00;;;;;;;7.70;59.61;97753.75;5288208;26;20061;-92
2023/12/22 08:39:53;;;;;;;0.47;0.37;;;;;;;7.65;59.60;97762.69;5305803;26;20056;-91
2023/12/22 08:42:19;;;;;;;0.00;0.00;;;;;;;7.66;59.60;97757.44;5288381;26;20650;-91
2023/12/22 08:44:44;;;;;;;0.30;0.30;;;;;;;7.84;59.62;97755.66;5287250;26;20105;-91
2023/12/22 08:47:10;;;;;;;1.37;0.52;;;;;;;7.76;59.62;97757.78;5287754;26;20455;-88
2023/12/22 08:49:35;;;;;;;0.00;0.00;;;;;;;7.65;59.60;97749.75;5324324;26;20076;-91
2023/12/22 08:52:03;;;;;;;0.00;0.00;;;;;;;7.75;59.61;97766.47;5324082;26;20397;-89
2023/12/22 08:54:29;;;;;;;0.00;0.00;;;;;;;7.78;59.61;97779.25;5306569;26;20056;-91
2023/12/22 08:56:54;;;;;;;0.10;0.10;;;;;;;7.93;59.62;97778.47;5305308;26;20080;-88
2023/12/22 08:59:20;;;;;;;0.10;0.10;;;;;;;7.90;59.61;97781.22;5287036;26;20449;-91
2023/12/22 09:01:45;;;;;;;0.00;0.00;;;;;;;7.85;59.62;97787.56;5305524;26;20071;-90
2023/12/22 09:04:11;;;;;;;0.00;0.00;;;;;;;8.01;59.62;97798.78;5305904;26;20368;-90
2023/12/22 09:06:36;;;;;;;0.00;0.00;;;;;;;7.96;59.61;97791.25;5327444;26;20354;-90
2023/12/22 09:09:03;;;;;;;0.00;0.00;;;;;;;8.14;59.63;97797.22;5305821;26;20341;-89
2023/12/22 09:11:29;;;;;;;0.80;0.70;;;;;;;8.40;59.65;97787.22;5288128;26;20068;-89
2023/12/22 09:13:54;;;;;;;0.00;0.00;;;;;;;8.35;59.64;97781.47;5305934;26;20138;-90
2023/12/22 09:16:23;;;;;;;0.00;0.00;;;;;;;8.46;59.65;97786.88;5287110;26;20060;-89
2023/12/22 09:18:49;;;;;;;0.00;0.00;;;;;;;8.42;59.64;97773.25;5305739;26;20075;-90
2023/12/22 09:21:15;;;;;;;0.00;0.00;;;;;;;8.42;59.64;97772.44;5305742;26;20040;-90
2023/12/22 09:23:44;;;;;;;0.00;0.00;;;;;;;8.56;59.65;97782.87;5287349;26;20056;-89
2023/12/22 09:26:09;;;;;;;0.00;0.00;;;;;;;8.50;59.65;97768.47;5326041;26;20056;-90
2023/12/22 09:28:35;;;;;;;0.05;0.00;;;;;;;8.59;59.66;97769.75;5305760;26;20048;-91
2023/12/22 09:31:01;;;;;;;0.00;0.00;;;;;;;8.53;59.66;97760.56;5286997;26;20111;-91
2023/12/22 09:33:26;;;;;;;0.00;0.00;;;;;;;8.65;59.66;97758.19;5287570;26;20120;-90
2023/12/22 09:35:52;;;;;;;0.00;0.00;;;;;;;8.51;59.66;97772.75;5287212;26;20115;-91
2023/12/22 09:38:17;;;;;;;0.08;0.08;;;;;;;8.51;59.64;97774.50;5286880;26;20072;-90
2023/12/22 09:40:42;;;;;;;0.20;0.17;;;;;;;8.66;59.66;97776.25;5288205;26;20365;-90
2023/12/22 09:43:08;;;;;;;0.00;0.00;;;;;;;8.67;59.66;97774.50;5287141;26;20074;-89
2023/12/22 09:45:34;;;;;;;0.00;0.00;;;;;;;8.69;59.66;97785.63;5287165;26;20125;-90
2023/12/22 09:48:00;;;;;;;0.00;0.00;;;;;;;8.69;59.66;97786.47;5286847;26;20626;-90
2023/12/22 09:50:26;;;;;;;0.00;0.00;;;;;;;8.91;59.67;97783.50;5287043;26;20045;-90
2023/12/22 09:52:52;;;;;;;0.00;0.00;;;;;;;8.90;59.68;97787.03;5286926;26;20325;-89
2023/12/22 09:55:17;;;;;;;0.00;0.00;;;;;;;8.78;59.67;97779.94;5286857;26;20103;-90
2023/12/22 09:57:43;;;;;;;0.00;0.00;;;;;;;8.96;59.67;97778.88;5305288;26;20390;-90
2023/12/22 10:00:09;;;;;;;0.00;0.00;;;;;;;9.01;59.68;97770.84;5286708;26;20060;-88
2023/12/22 10:02:35;;;;;;;0.37;0.10;;;;;;;8.91;59.68;97770.53;5287604;26;20061;-89
2023/12/22 10:05:01;;;;;;;0.45;0.40;;;;;;;8.83;59.67;97775.31;5287053;26;20129;-89
2023/12/22 10:07:26;;;;;;;0.00;0.00;;;;;;;8.85;59.67;97771.72;5308080;26;20406;-91
2023/12/22 10:09:52;;;;;;;0.00;0.00;;;;;;;9.08;59.68;97766.97;5287260;26;20095;-89
2023/12/22 10:12:17;;;;;;;3.20;1.17;;;;;;;9.21;59.69;97773.13;5305211;26;20380;-90
2023/12/22 10:14:43;;;;;;;0.00;0.00;;;;;;;9.02;59.68;97764.75;5304995;26;20103;-89
2023/12/22 10:17:08;;;;;;;0.00;0.00;;;;;;;9.12;59.69;97774.50;5305014;26;20088;-88
2023/12/22 10:19:34;;;;;;;0.00;0.00;;;;;;;9.15;59.69;97778.66;5285712;26;26061;-89
2023/12/22 10:21:59;;;;;;;0.08;0.08;;;;;;;9.27;59.70;97774.53;5305169;26;20076;-89
2023/12/22 10:24:46;;;;;;;0.00;0.00;;;;;;;9.32;59.69;97775.94;5287109;26;20106;-89
2023/12/22 10:27:12;;;;;;;0.00;0.00;;;;;;;9.13;59.69;97776.16;5288437;26;20056;-90
2023/12/22 10:29:38;;;;;;;2.12;1.98;;;;;;;9.26;59.70;97752.94;5286500;26;20459;-88
2023/12/22 10:32:04;;;;;;;0.00;0.00;;;;;;;9.24;59.69;97754.78;5305226;26;20057;-88
2023/12/22 10:34:30;;;;;;;0.00;0.00;;;;;;;9.09;59.68;97743.53;5323434;26;20053;-89
2023/12/22 10:36:56;;;;;;;0.00;0.00;;;;;;;9.12;59.69;97752.91;5304890;26;20103;-89
2023/12/22 10:39:21;;;;;;;0.00;0.00;;;;;;;9.26;59.69;97713.16;5343451;26;20098;-89
2023/12/22 10:41:49;;;;;;;0.00;0.00;;;;;;;9.20;59.69;97722.97;5322853;26;20333;-89
2023/12/22 10:44:14;;;;;;;0.00;0.00;;;;;;;9.24;59.69;97726.25;5286640;26;20131;-89
2023/12/22 10:46:40;;;;;;;0.00;0.00;;;;;;;9.37;59.70;97721.97;5286669;26;20351;-89
2023/12/22 10:49:05;;;;;;;0.10;0.10;;;;;;;9.10;59.68;97727.03;5286987;26;20711;-89
2023/12/22 10:51:32;;;;;;;0.00;0.00;;;;;;;8.91;59.68;97723.81;5287162;26;25355;-89
2023/12/22 10:53:58;;;;;;;0.00;0.00;;;;;;;8.66;59.66;97733.94;5306526;26;20071;-88
2023/12/22 10:56:24;;;;;;;1.45;0.17;;;;;;;8.56;59.65;97700.75;5287799;26;20056;-90
2023/12/22 10:58:50;;;;;;;0.00;0.00;;;;;;;8.57;59.65;97725.75;5288005;26;20064;-89
2023/12/22 11:01:15;;;;;;;0.00;0.00;;;;;;;8.55;59.65;97719.00;5287697;26;20123;-89
2023/12/22 11:03:42;;;;;;;0.00;0.00;;;;;;;8.42;59.64;97730.94;5287876;26;20060;-90
2023/12/22 11:06:10;;;;;;;0.00;0.00;;;;;;;8.49;59.64;97738.28;5287947;26;20118;-90
2023/12/22 11:08:35;;;;;;;0.00;0.00;;;;;;;8.50;59.65;97744.31;5308461;26;20057;-89
2023/12/22 11:11:00;;;;;;;0.08;0.08;;;;;;;8.73;59.66;97756.84;5287524;26;20453;-91
2023/12/22 11:13:29;;;;;;;2.72;0.43;;;;;;;8.77;59.67;97739.38;5304558;26;29831;-93
2023/12/22 11:15:59;;;;;;;0.00;0.00;;;;;;;8.87;59.67;97743.94;5306024;26;20048;-92
2023/12/22 11:18:43;;;;;;;0.00;0.00;;;;;;;9.04;59.69;97740.38;5288810;26;20052;-91
2023/12/22 11:21:19;;;;;;;0.00;0.00;;;;;;;9.04;59.68;97747.31;5289900;26;20127;-91
2023/12/22 11:23:49;;;;;;;0.00;0.00;;;;;;;9.25;59.69;97737.47;5291070;26;20059;-91
2023/12/22 11:26:15;;;;;;;0.00;0.00;;;;;;;9.50;59.71;97730.72;5306070;26;20435;-92
2023/12/22 11:28:41;;;;;;;0.00;0.00;;;;;;;9.33;59.70;97745.63;5287559;26;20706;-93
2023/12/22 11:34:32;;;;;;;0.00;0.00;;;;;;;9.63;59.70;97733.41;5255066;27;20489;-90
2023/12/22 11:37:00;;;;;;;0.00;0.00;;;;;;;9.53;59.71;97753.91;5219612;27;20127;-89
2023/12/22 11:39:29;;;;;;;0.00;0.00;;;;;;;9.52;59.71;97769.59;5301385;26;20112;-95
2023/12/22 11:46:47;;;;;;;0.00;0.00;;;;;;;9.34;59.70;97745.53;5254946;27;20096;-93
2023/12/22 11:49:14;;;;;;;1.55;0.47;;;;;;;9.44;59.70;97740.62;5234708;27;20129;-91
2023/12/22 12:19:48;;;;;;;0.00;0.00;;;;;;;9.68;59.72;97757.34;5289557;27;20795;-90
2023/12/22 12:22:14;;;;;;;0.00;0.00;;;;;;;9.72;59.71;97758.00;5264949;27;20061;-88
2023/12/22 12:24:45;;;;;;;0.00;0.00;;;;;;;9.56;59.70;97765.88;5299735;27;29657;-90
2023/12/22 12:27:11;;;;;;;0.00;0.00;;;;;;;9.36;59.70;97763.62;5283179;27;20077;-89
2023/12/22 12:30:03;;;;;;;0.00;0.00;;;;;;;9.03;59.67;97758.63;5265657;27;20074;-93
2023/12/22 12:32:38;;;;;;;0.00;0.00;;;;;;;9.11;59.68;97757.25;5279691;27;20712;-94
2023/12/22 12:35:24;;;;;;;0.00;0.00;;;;;;;9.00;59.68;97762.25;5284668;27;20052;-93
2023/12/22 12:37:53;;;;;;;0.00;0.00;;;;;;;8.86;59.67;97799.34;5288670;27;20439;-92
2023/12/22 12:40:18;;;;;;;0.10;0.10;;;;;;;8.69;59.66;97790.81;5268406;27;20455;-92
2023/12/22 12:42:44;;;;;;;0.00;0.00;;;;;;;8.79;59.67;97763.47;5283158;27;20061;-90
2023/12/22 12:45:12;;;;;;;0.00;0.00;;;;;;;8.82;59.68;97756.34;5266126;27;20096;-90
2023/12/22 12:47:59;;;;;;;0.00;0.00;;;;;;;9.09;59.69;97763.47;5283287;27;20089;-91
2023/12/22 12:50:28;;;;;;;0.00;0.00;;;;;;;9.27;59.68;97764.16;5282678;27;20350;-90
2023/12/22 12:52:54;;;;;;;0.00;0.00;;;;;;;8.87;59.67;97774.22;5261867;27;20056;-88